Ascutney, Vermont
Current Conditions -  °F | °C
As of 4:54 PM on Tuesday 21 Oct 2014 (Local Time) from KVSF Reporting Station
Overcast Overcast  
Wind Chill:   Ceiling: 1100
Heat Index:   Visibility: 10mi
Dew Point:   Wind: 5mph
Humidity: 90%   Direction: 20°NNE
Pressure: 29.97"   Gusts: NA
Location:  43.41°N, 72.41°W
Report Text: KVSF 212054Z AUTO 02004KT 10SM OVC011 09/08 A2997 RMK AO2 SLP154 60000 T00940078 53002
Loading
Personal Weather Stations






























Interactive Weather Map
Tropical Storm Tracking
New forecast layout! Learn more

10-Day Weather Forecast

Advertisements
Track Severe Weather on mobile